createdAt,value
2018-10-03T00:01:29.289Z,69.52
2018-10-03T00:04:02.910Z,69.67
2018-10-03T00:06:36.701Z,69.68
2018-10-03T00:09:11.030Z,69.45
2018-10-03T00:11:44.695Z,69.33
2018-10-03T00:14:18.356Z,69.02
2018-10-03T00:16:52.146Z,68.68
2018-10-03T00:19:25.761Z,69.00
2018-10-03T00:21:59.399Z,68.57
2018-10-03T00:24:33.002Z,68.76
2018-10-03T00:27:06.683Z,68.71
2018-10-03T00:29:40.255Z,68.83
2018-10-03T00:32:13.853Z,68.72
2018-10-03T00:34:47.887Z,68.67
2018-10-03T00:37:21.555Z,68.21
2018-10-03T00:39:55.211Z,67.85
2018-10-03T00:42:28.843Z,67.88
2018-10-03T00:45:03.029Z,68.33
2018-10-03T00:47:36.769Z,68.02
2018-10-03T00:50:10.358Z,67.72
2018-10-03T00:52:43.929Z,68.49
2018-10-03T00:55:18.133Z,68.10
2018-10-03T00:57:51.753Z,68.31
2018-10-03T01:00:25.411Z,68.35
2018-10-03T01:02:59.137Z,67.66
2018-10-03T01:05:32.751Z,67.98
2018-10-03T01:08:06.459Z,68.05
2018-10-03T01:10:40.086Z,68.01
2018-10-03T01:13:13.875Z,67.67
2018-10-03T01:15:47.514Z,67.40
2018-10-03T01:18:21.149Z,67.26
2018-10-03T01:20:54.870Z,67.98
2018-10-03T01:23:28.512Z,67.05
2018-10-03T01:26:02.367Z,67.04
2018-10-03T01:28:36.064Z,67.35
2018-10-03T01:31:09.816Z,67.35
2018-10-03T01:33:43.638Z,67.35
2018-10-03T01:36:17.392Z,67.39
2018-10-03T01:38:51.000Z,67.75
2018-10-03T01:41:24.765Z,67.69
2018-10-03T01:43:58.953Z,67.56
2018-10-03T01:46:32.609Z,67.81
2018-10-03T01:49:06.256Z,67.18
2018-10-03T01:51:39.998Z,67.67
2018-10-03T01:54:13.616Z,67.34
2018-10-03T01:56:47.238Z,67.64
2018-10-03T01:59:20.858Z,67.49
2018-10-03T02:01:54.455Z,67.44
2018-10-03T02:04:28.122Z,67.33
2018-10-03T02:07:01.870Z,66.94
2018-10-03T02:09:35.435Z,67.65
2018-10-03T02:12:09.060Z,67.19
2018-10-03T02:14:42.767Z,66.48
2018-10-03T02:17:16.475Z,66.87
2018-10-03T02:19:50.112Z,66.97
2018-10-03T02:22:24.062Z,67.23
2018-10-03T02:24:57.683Z,67.05
2018-10-03T02:27:31.329Z,66.86
2018-10-03T02:30:06.174Z,67.32
2018-10-03T02:32:39.879Z,67.05
2018-10-03T02:35:13.505Z,67.39
2018-10-03T02:37:47.298Z,67.41
2018-10-03T02:40:20.943Z,67.16
2018-10-03T02:42:54.619Z,67.39
2018-10-03T02:45:28.277Z,66.86
2018-10-03T02:48:01.923Z,67.01
2018-10-03T02:50:35.829Z,67.20
2018-10-03T02:53:09.909Z,67.33
2018-10-03T02:55:43.543Z,67.46
2018-10-03T02:58:17.173Z,64.95
2018-10-03T03:00:50.919Z,67.26
2018-10-03T03:03:24.599Z,67.15
2018-10-03T03:05:58.381Z,66.99
2018-10-03T03:08:32.080Z,66.74
2018-10-03T03:11:05.795Z,66.98
2018-10-03T03:13:39.526Z,66.91
2018-10-03T03:16:13.172Z,67.05
2018-10-03T03:18:47.024Z,67.24
2018-10-03T03:21:20.718Z,67.27
2018-10-03T03:23:54.373Z,67.25
2018-10-03T03:26:28.058Z,67.81
2018-10-03T03:29:01.680Z,68.15
2018-10-03T03:31:35.308Z,67.51
2018-10-03T03:34:08.971Z,67.92
2018-10-03T03:36:42.600Z,67.69
2018-10-03T03:39:16.294Z,67.38
2018-10-03T03:41:49.911Z,67.30
2018-10-03T03:44:23.520Z,67.57
2018-10-03T03:46:57.286Z,67.45
2018-10-03T03:49:31.014Z,67.20
2018-10-03T03:52:04.715Z,67.19
2018-10-03T03:54:38.292Z,67.31
2018-10-03T03:57:11.971Z,67.27
2018-10-03T03:59:45.593Z,64.91
2018-10-03T04:02:19.238Z,66.71
2018-10-03T04:04:52.979Z,67.01
2018-10-03T04:07:26.587Z,66.63
2018-10-03T04:10:00.310Z,66.64
2018-10-03T04:12:33.911Z,66.35
2018-10-03T04:15:07.657Z,65.67
2018-10-03T04:17:41.332Z,66.08
2018-10-03T04:20:15.084Z,66.55
2018-10-03T04:22:48.724Z,66.00
2018-10-03T04:25:22.349Z,66.37
2018-10-03T04:27:56.031Z,66.44
2018-10-03T04:30:29.645Z,65.77
2018-10-03T04:33:03.306Z,65.94
2018-10-03T04:35:36.982Z,65.96
2018-10-03T04:38:10.627Z,65.92
2018-10-03T04:40:44.289Z,65.54
2018-10-03T04:43:18.150Z,65.70
2018-10-03T04:45:51.833Z,65.57
2018-10-03T04:48:25.758Z,65.38
2018-10-03T04:50:59.398Z,65.08
2018-10-03T04:53:32.996Z,65.54
2018-10-03T04:56:06.710Z,64.71
2018-10-03T04:58:40.575Z,64.95
2018-10-03T05:01:14.196Z,64.46
2018-10-03T05:03:47.868Z,64.77
2018-10-03T05:06:21.511Z,64.84
2018-10-03T05:08:55.143Z,64.60
2018-10-03T05:11:28.810Z,64.09
2018-10-03T05:14:02.478Z,64.42
2018-10-03T05:16:36.160Z,64.72
2018-10-03T05:19:09.831Z,64.76
2018-10-03T05:21:43.442Z,64.73
2018-10-03T05:24:17.316Z,64.59
2018-10-03T05:26:50.961Z,64.57
2018-10-03T05:29:24.745Z,64.62
2018-10-03T05:31:58.396Z,64.21
2018-10-03T05:34:32.228Z,64.45
2018-10-03T05:37:05.966Z,65.00
2018-10-03T05:39:39.644Z,65.37
2018-10-03T05:42:13.349Z,65.98
2018-10-03T05:44:46.982Z,66.23
2018-10-03T05:47:20.583Z,66.81
2018-10-03T05:49:54.232Z,67.18
2018-10-03T05:52:27.833Z,67.32
2018-10-03T05:55:01.480Z,67.35
2018-10-03T05:57:35.108Z,67.26
2018-10-03T06:00:08.827Z,67.40
2018-10-03T06:02:42.531Z,67.41
2018-10-03T06:05:16.145Z,67.80
2018-10-03T06:07:49.767Z,67.76
2018-10-03T06:10:23.396Z,68.07
2018-10-03T06:12:57.088Z,67.77
2018-10-03T06:15:30.753Z,67.65
2018-10-03T06:18:04.345Z,68.12
2018-10-03T06:20:38.141Z,67.84
2018-10-03T06:23:11.725Z,67.77
2018-10-03T06:25:45.307Z,68.01
2018-10-03T06:28:18.997Z,68.01
2018-10-03T06:30:52.625Z,68.66
2018-10-03T06:33:26.342Z,68.05
2018-10-03T06:35:59.947Z,68.51
2018-10-03T06:38:33.537Z,68.54
2018-10-03T06:41:07.223Z,68.65
2018-10-03T06:43:40.835Z,68.95
2018-10-03T06:46:14.470Z,69.20
2018-10-03T06:48:48.143Z,69.33
2018-10-03T06:51:21.756Z,69.23
2018-10-03T06:53:55.361Z,69.08
2018-10-03T06:56:29.238Z,69.14
2018-10-03T06:59:02.963Z,69.36
2018-10-03T07:01:36.632Z,69.42
2018-10-03T07:04:10.351Z,69.45
2018-10-03T07:06:43.968Z,69.68
2018-10-03T07:09:17.561Z,69.42
2018-10-03T07:11:51.181Z,69.64
2018-10-03T07:14:24.879Z,69.62
2018-10-03T07:16:58.600Z,69.45
2018-10-03T07:19:32.248Z,69.67
2018-10-03T07:22:05.934Z,69.52
2018-10-03T07:24:39.596Z,69.60
2018-10-03T07:27:13.322Z,69.56
2018-10-03T07:29:46.888Z,69.30
2018-10-03T07:32:20.541Z,69.53
2018-10-03T07:34:54.150Z,69.82
2018-10-03T07:37:27.837Z,69.96
2018-10-03T07:40:01.461Z,69.93
2018-10-03T07:42:35.230Z,69.84
2018-10-03T07:45:08.847Z,69.82
2018-10-03T07:47:42.457Z,69.80
2018-10-03T07:50:16.226Z,69.62
2018-10-03T07:52:49.938Z,69.61
2018-10-03T07:55:23.768Z,69.61
2018-10-03T07:57:57.421Z,69.55
2018-10-03T08:00:31.706Z,69.42
2018-10-03T08:03:11.389Z,69.16
2018-10-03T08:05:45.082Z,69.36
2018-10-03T08:08:18.764Z,69.16
2018-10-03T08:10:52.384Z,69.15
2018-10-03T08:13:26.059Z,69.37
2018-10-03T08:15:59.755Z,68.99
2018-10-03T08:18:33.494Z,68.12
2018-10-03T08:21:07.210Z,68.73
2018-10-03T08:23:40.844Z,68.31
2018-10-03T08:26:14.492Z,68.56
2018-10-03T08:28:48.181Z,68.03
2018-10-03T08:31:21.880Z,68.64
2018-10-03T08:33:56.907Z,68.82
2018-10-03T08:36:31.422Z,68.98
2018-10-03T08:39:09.152Z,68.80
2018-10-03T08:41:43.895Z,68.89
2018-10-03T08:44:18.267Z,68.73
2018-10-03T08:46:52.074Z,68.77
2018-10-03T08:49:26.725Z,68.93
2018-10-03T08:52:00.683Z,69.01
2018-10-03T08:54:34.379Z,68.65
2018-10-03T08:57:09.270Z,68.87
2018-10-03T08:59:42.888Z,68.93
2018-10-03T09:02:16.504Z,68.71
2018-10-03T09:04:51.268Z,68.83
2018-10-03T09:07:27.407Z,68.37
2018-10-03T09:10:01.212Z,68.16
2018-10-03T09:12:34.821Z,68.39
2018-10-03T09:15:08.491Z,68.07
2018-10-03T09:17:42.125Z,68.28
2018-10-03T09:20:15.726Z,67.54
2018-10-03T09:22:49.395Z,67.35
2018-10-03T09:25:23.024Z,67.15
2018-10-03T09:27:57.035Z,66.47
2018-10-03T09:30:30.875Z,65.97
2018-10-03T09:33:04.489Z,65.07
2018-10-03T09:35:38.131Z,65.37
2018-10-03T09:38:11.750Z,64.92
2018-10-03T09:40:45.333Z,64.48
2018-10-03T09:43:18.978Z,64.58
2018-10-03T09:45:52.596Z,64.66
2018-10-03T09:48:26.223Z,64.50
2018-10-03T09:50:59.845Z,64.79
2018-10-03T09:53:33.486Z,65.36
2018-10-03T09:56:07.244Z,64.04
2018-10-03T09:58:40.965Z,64.68
2018-10-03T10:01:15.371Z,62.96
2018-10-03T10:03:48.972Z,64.35
2018-10-03T10:06:22.577Z,64.55
2018-10-03T10:08:56.284Z,65.02
2018-10-03T10:11:29.923Z,64.29
2018-10-03T10:14:03.589Z,65.27
2018-10-03T10:16:37.181Z,64.57
2018-10-03T10:19:10.817Z,65.25
2018-10-03T10:21:44.428Z,63.40
2018-10-03T10:24:18.098Z,62.67
2018-10-03T10:26:51.680Z,61.02
2018-10-03T10:29:25.281Z,61.79
2018-10-03T10:31:58.919Z,61.21
2018-10-03T10:34:32.724Z,59.83
2018-10-03T10:37:06.417Z,59.50
2018-10-03T10:39:40.067Z,60.37
2018-10-03T10:42:13.689Z,60.12
2018-10-03T10:44:47.309Z,60.10
2018-10-03T10:48:23.831Z,59.06
2018-10-03T10:50:57.460Z,59.20
2018-10-03T10:53:31.053Z,58.44
2018-10-03T10:56:04.639Z,56.19
2018-10-03T10:58:38.268Z,56.71
2018-10-03T11:01:11.901Z,56.99
2018-10-03T11:03:45.583Z,57.45
2018-10-03T11:06:19.204Z,57.64
2018-10-03T11:08:52.794Z,57.40
2018-10-03T11:11:26.391Z,57.17
2018-10-03T11:14:00.127Z,57.50
2018-10-03T11:16:33.880Z,58.12
2018-10-03T11:19:07.488Z,56.97
2018-10-03T11:21:41.089Z,54.74
2018-10-03T11:24:14.837Z,55.22
2018-10-03T11:26:48.384Z,55.51
2018-10-03T11:29:22.013Z,53.82
2018-10-03T11:31:56.494Z,53.69
2018-10-03T11:34:30.075Z,53.09
2018-10-03T11:37:03.670Z,54.40
2018-10-03T11:39:37.294Z,54.81
2018-10-03T11:42:10.889Z,55.36
2018-10-03T11:44:44.668Z,56.53
2018-10-03T11:47:18.274Z,57.45
2018-10-03T11:49:51.919Z,58.93
2018-10-03T11:52:25.525Z,59.34
2018-10-03T11:54:59.129Z,59.42
2018-10-03T11:57:32.780Z,59.35
2018-10-03T12:00:06.449Z,59.57
2018-10-03T12:02:40.117Z,59.84
2018-10-03T12:05:13.809Z,59.82
2018-10-03T12:07:47.386Z,60.21
2018-10-03T12:10:21.093Z,60.37
2018-10-03T12:12:54.915Z,58.59
2018-10-03T12:15:30.026Z,59.26
2018-10-03T12:18:03.700Z,58.99
2018-10-03T12:20:37.372Z,58.53
2018-10-03T12:23:11.799Z,58.15
2018-10-03T12:25:46.015Z,58.12
2018-10-03T12:28:19.705Z,58.35
2018-10-03T12:30:53.362Z,58.30
2018-10-03T12:33:27.022Z,58.30
2018-10-03T12:36:00.668Z,57.57
2018-10-03T12:38:34.398Z,57.68
2018-10-03T12:41:08.068Z,57.27
2018-10-03T12:43:41.688Z,56.00
2018-10-03T12:46:15.349Z,55.92
2018-10-03T12:48:48.979Z,55.67
2018-10-03T12:51:22.604Z,55.99
2018-10-03T12:53:56.217Z,54.97
2018-10-03T12:56:29.855Z,55.10
2018-10-03T12:59:03.505Z,56.82
2018-10-03T13:01:37.158Z,56.87
2018-10-03T13:04:10.796Z,57.74
2018-10-03T13:06:44.544Z,58.42
2018-10-03T13:09:18.222Z,57.97
2018-10-03T13:11:51.841Z,57.60
2018-10-03T13:14:25.501Z,57.43
2018-10-03T13:16:59.136Z,57.60
2018-10-03T13:19:32.863Z,58.01
2018-10-03T13:22:06.529Z,57.80
2018-10-03T13:24:40.167Z,58.24
2018-10-03T13:27:13.788Z,58.17
2018-10-03T13:29:47.405Z,58.39
2018-10-03T13:32:21.013Z,58.27
2018-10-03T13:34:54.642Z,58.58
2018-10-03T13:37:28.345Z,58.86
2018-10-03T13:40:02.091Z,58.27
2018-10-03T13:42:35.761Z,58.21
2018-10-03T13:45:09.460Z,58.60
2018-10-03T13:47:43.089Z,58.33
2018-10-03T13:50:16.780Z,58.31
2018-10-03T13:52:50.434Z,58.22
2018-10-03T13:55:24.097Z,56.40
2018-10-03T13:57:57.877Z,57.12
2018-10-03T14:00:31.611Z,56.67
2018-10-03T14:03:05.313Z,56.81
2018-10-03T14:05:39.037Z,55.42
2018-10-03T14:08:12.688Z,56.69
2018-10-03T14:10:46.347Z,56.45
2018-10-03T14:13:20.029Z,55.48
2018-10-03T14:15:53.699Z,55.42
2018-10-03T14:18:27.344Z,54.27
2018-10-03T14:21:01.029Z,54.77
2018-10-03T14:23:34.687Z,54.78
2018-10-03T14:26:08.280Z,54.79
2018-10-03T14:28:42.169Z,54.98
2018-10-03T14:31:15.891Z,55.44
2018-10-03T14:33:49.512Z,54.87
2018-10-03T14:36:23.141Z,53.96
2018-10-03T14:38:56.724Z,53.30
2018-10-03T14:41:30.435Z,54.09
2018-10-03T14:44:04.061Z,53.56
2018-10-03T14:46:37.753Z,53.55
2018-10-03T14:49:11.305Z,53.38
2018-10-03T14:51:44.967Z,54.27
2018-10-03T14:54:18.538Z,53.76
2018-10-03T14:56:52.128Z,53.52
2018-10-03T14:59:25.826Z,54.41
2018-10-03T15:01:59.456Z,53.17
2018-10-03T15:04:33.033Z,53.34
2018-10-03T15:07:07.020Z,53.33
2018-10-03T15:09:40.555Z,53.03
2018-10-03T15:12:14.185Z,52.80
2018-10-03T15:14:47.790Z,52.22
2018-10-03T15:17:21.440Z,52.04
2018-10-03T15:19:55.049Z,52.79
2018-10-03T15:22:28.778Z,50.93
2018-10-03T15:25:02.477Z,52.21
2018-10-03T15:27:36.193Z,52.35
2018-10-03T15:30:09.939Z,52.07
2018-10-03T15:32:43.575Z,50.90
2018-10-03T15:35:17.191Z,50.97
2018-10-03T15:37:51.159Z,50.37
2018-10-03T15:40:24.820Z,48.79
2018-10-03T15:42:58.405Z,48.99
2018-10-03T15:45:31.976Z,49.09
2018-10-03T15:48:05.635Z,49.34
2018-10-03T15:50:39.233Z,50.11
2018-10-03T15:53:13.019Z,47.70
2018-10-03T15:55:46.720Z,48.53
2018-10-03T15:58:20.441Z,48.75
2018-10-03T16:00:54.132Z,49.96
2018-10-03T16:03:27.787Z,49.41
2018-10-03T16:06:01.434Z,50.55
2018-10-03T16:08:36.027Z,50.35
2018-10-03T16:11:09.680Z,50.69
2018-10-03T16:13:43.341Z,50.22
2018-10-03T16:16:17.088Z,51.42
2018-10-03T16:18:50.712Z,51.06
2018-10-03T16:21:24.528Z,50.91
2018-10-03T16:23:58.302Z,51.20
2018-10-03T16:26:31.944Z,50.86
2018-10-03T16:29:05.601Z,51.85
2018-10-03T16:31:39.227Z,52.96
2018-10-03T16:34:12.804Z,52.18
2018-10-03T16:36:46.499Z,52.09
2018-10-03T16:39:20.126Z,53.04
2018-10-03T16:41:53.754Z,52.87
2018-10-03T16:44:27.402Z,52.97
2018-10-03T16:47:01.039Z,53.74
2018-10-03T16:49:34.714Z,53.24
2018-10-03T16:52:08.374Z,54.63
2018-10-03T16:54:41.975Z,54.58
2018-10-03T16:57:15.616Z,54.14
2018-10-03T16:59:49.266Z,55.03
2018-10-03T17:02:28.939Z,55.23
2018-10-03T17:05:02.549Z,54.87
2018-10-03T17:07:36.261Z,55.45
2018-10-03T17:10:09.959Z,55.35
2018-10-03T17:12:43.681Z,56.07
2018-10-03T17:15:17.338Z,56.21
2018-10-03T17:17:50.984Z,55.53
2018-10-03T17:20:24.614Z,55.98
2018-10-03T17:22:58.286Z,56.24
2018-10-03T17:25:32.111Z,55.47
2018-10-03T17:28:05.731Z,56.63
2018-10-03T17:30:39.348Z,56.46
2018-10-03T17:33:13.040Z,55.94
2018-10-03T17:35:46.673Z,56.03
2018-10-03T17:38:20.347Z,56.25
2018-10-03T17:40:53.971Z,55.70
2018-10-03T17:43:27.695Z,55.65
2018-10-03T17:46:01.263Z,56.41
2018-10-03T17:48:34.892Z,56.13
2018-10-03T17:51:08.529Z,55.75
2018-10-03T17:53:42.134Z,55.80
2018-10-03T17:56:15.752Z,56.03
2018-10-03T17:58:49.401Z,56.43
2018-10-03T18:01:24.237Z,57.07
2018-10-03T18:03:57.916Z,57.53
2018-10-03T18:06:31.533Z,57.18
2018-10-03T18:09:08.004Z,57.21
2018-10-03T18:11:41.725Z,57.61
2018-10-03T18:14:15.337Z,57.09
2018-10-03T18:16:48.917Z,57.52
2018-10-03T18:19:22.634Z,57.12
2018-10-03T18:21:56.285Z,57.21
2018-10-03T18:24:29.857Z,57.15
2018-10-03T18:27:03.468Z,57.50
2018-10-03T18:29:37.142Z,57.88
2018-10-03T18:32:10.766Z,58.29
2018-10-03T18:34:44.510Z,58.26
2018-10-03T18:37:18.150Z,58.73
2018-10-03T18:39:51.790Z,59.16
2018-10-03T18:42:25.408Z,58.76
2018-10-03T18:44:59.086Z,58.98
2018-10-03T18:47:32.692Z,58.93
2018-10-03T18:50:07.117Z,59.04
2018-10-03T18:52:40.726Z,59.08
2018-10-03T18:55:14.325Z,59.55
2018-10-03T18:57:47.941Z,59.56
2018-10-03T19:00:21.583Z,60.19
2018-10-03T19:02:55.171Z,60.04
2018-10-03T19:05:28.788Z,59.98
2018-10-03T19:08:02.598Z,60.65
2018-10-03T19:10:36.231Z,60.56
2018-10-03T19:13:09.900Z,60.72
2018-10-03T19:15:43.558Z,60.61
2018-10-03T19:18:17.325Z,60.99
2018-10-03T19:20:50.917Z,60.70
2018-10-03T19:23:24.540Z,60.89
2018-10-03T19:25:58.209Z,60.98
2018-10-03T19:28:31.984Z,61.16
2018-10-03T19:31:05.617Z,61.23
2018-10-03T19:33:39.422Z,61.11
2018-10-03T19:36:12.993Z,61.18
2018-10-03T19:38:46.638Z,61.27
2018-10-03T19:41:20.274Z,61.31
2018-10-03T19:43:53.894Z,61.54
2018-10-03T19:46:27.522Z,61.11
2018-10-03T19:49:01.251Z,61.29
2018-10-03T19:51:34.880Z,61.55
2018-10-03T19:54:08.817Z,61.39
2018-10-03T19:56:42.471Z,61.20
2018-10-03T19:59:16.112Z,61.23
2018-10-03T20:01:49.766Z,61.24
2018-10-03T20:04:23.419Z,61.23
2018-10-03T20:06:57.028Z,61.32
2018-10-03T20:16:33.714Z,60.56
2018-10-03T20:19:07.343Z,61.09
2018-10-03T20:21:41.164Z,61.53
2018-10-03T20:24:14.798Z,61.65
2018-10-03T20:26:48.420Z,61.66
2018-10-03T20:29:22.120Z,61.54
2018-10-03T20:31:55.737Z,61.51
2018-10-03T20:34:29.486Z,61.73
2018-10-03T20:37:03.199Z,61.86
2018-10-03T20:39:36.891Z,61.97
2018-10-03T20:42:10.606Z,61.50
2018-10-03T20:44:44.215Z,61.91
2018-10-03T20:47:17.884Z,62.10
2018-10-03T20:49:51.509Z,61.80
2018-10-03T20:52:25.206Z,61.60
2018-10-03T20:54:58.802Z,61.86
2018-10-03T20:57:32.564Z,61.56
2018-10-03T21:00:06.275Z,61.65
2018-10-03T21:02:41.193Z,61.60
2018-10-03T21:05:14.856Z,61.54
2018-10-03T21:07:48.610Z,61.54
2018-10-03T21:10:22.782Z,61.57
2018-10-03T21:12:56.474Z,61.56
2018-10-03T21:15:30.186Z,61.33
2018-10-03T21:18:03.961Z,61.53
2018-10-03T21:20:38.737Z,61.66
2018-10-03T21:23:12.388Z,61.70
2018-10-03T21:25:46.046Z,61.41
2018-10-03T21:28:19.872Z,61.31
2018-10-03T21:30:55.150Z,61.80
2018-10-03T21:33:29.263Z,61.65
2018-10-03T21:36:03.391Z,61.31
2018-10-03T21:38:37.606Z,61.54
2018-10-03T21:41:11.795Z,61.66
2018-10-03T21:43:46.610Z,61.57
2018-10-03T21:46:20.592Z,61.69
2018-10-03T21:48:54.958Z,62.09
2018-10-03T21:51:28.584Z,62.04
2018-10-03T21:54:03.014Z,61.55
2018-10-03T21:56:36.665Z,61.70
2018-10-03T21:59:10.349Z,61.97
2018-10-03T22:01:44.037Z,61.88
2018-10-03T22:04:17.787Z,61.84
2018-10-03T22:06:51.635Z,61.58
2018-10-03T22:09:25.342Z,61.81
2018-10-03T22:11:59.709Z,62.00
2018-10-03T22:14:33.477Z,61.94
2018-10-03T22:17:13.074Z,61.67
2018-10-03T22:19:47.155Z,61.62
2018-10-03T22:22:21.105Z,61.44
2018-10-03T22:24:55.282Z,61.61
2018-10-03T22:27:29.536Z,61.48
2018-10-03T22:30:03.376Z,61.25
2018-10-03T22:32:38.353Z,61.83
2018-10-03T22:35:12.009Z,61.51
2018-10-03T22:37:45.817Z,61.55
2018-10-03T22:40:19.419Z,61.89
2018-10-03T22:42:53.956Z,62.14
2018-10-03T22:45:27.761Z,61.70
2018-10-03T22:48:01.402Z,61.98
2018-10-03T22:50:35.032Z,61.81
2018-10-03T22:53:08.837Z,61.86
2018-10-03T22:55:42.482Z,62.07
2018-10-03T22:58:16.584Z,61.98
2018-10-03T23:00:50.418Z,62.43
2018-10-03T23:03:24.014Z,62.40
2018-10-03T23:05:57.707Z,62.12
2018-10-03T23:08:32.011Z,62.12
2018-10-03T23:11:05.793Z,61.82
2018-10-03T23:13:39.394Z,62.29
2018-10-03T23:16:12.970Z,62.37
2018-10-03T23:18:46.594Z,62.56
2018-10-03T23:21:20.209Z,62.63
2018-10-03T23:23:53.859Z,62.51
2018-10-03T23:26:27.523Z,62.97
2018-10-03T23:29:01.106Z,63.05
2018-10-03T23:31:34.969Z,63.10
2018-10-03T23:34:08.655Z,62.93
2018-10-03T23:36:42.429Z,63.33
2018-10-03T23:39:16.081Z,62.79
2018-10-03T23:41:49.837Z,62.65
2018-10-03T23:44:23.309Z,62.92
2018-10-03T23:46:56.917Z,62.96
2018-10-03T23:49:32.563Z,63.04
2018-10-03T23:52:06.168Z,62.84
2018-10-03T23:54:39.769Z,62.77
2018-10-03T23:57:13.406Z,63.13
2018-10-03T23:59:47.063Z,63.05
